createdAt,value
2022-12-22T00:01:09.410Z,9.02
2022-12-22T00:03:57.648Z,7.65
2022-12-22T00:06:44.434Z,8.88
2022-12-22T00:09:31.239Z,6.93
2022-12-22T00:12:18.271Z,8.40
2022-12-22T00:15:06.149Z,8.15
2022-12-22T00:17:53.717Z,7.15
2022-12-22T00:20:42.157Z,7.60
2022-12-22T00:23:29.360Z,8.85
2022-12-22T00:26:16.188Z,6.47
2022-12-22T00:29:03.836Z,8.38
2022-12-22T00:31:50.197Z,8.27
2022-12-22T00:34:39.689Z,8.68
2022-12-22T00:37:30.629Z,8.23
2022-12-22T00:43:04.089Z,8.05
2022-12-22T00:45:51.130Z,8.95
2022-12-22T00:48:42.233Z,9.18
2022-12-22T00:51:30.979Z,8.80
2022-12-22T00:54:19.722Z,10.32
2022-12-22T00:57:06.781Z,9.77
2022-12-22T00:59:53.181Z,9.48
2022-12-22T01:02:40.838Z,10.35
2022-12-22T01:05:27.632Z,10.05
2022-12-22T01:08:15.050Z,10.10
2022-12-22T01:11:03.019Z,11.85
2022-12-22T01:13:50.576Z,9.63
2022-12-22T01:16:37.006Z,10.52
2022-12-22T01:19:24.566Z,9.38
2022-12-22T01:22:11.081Z,9.98
2022-12-22T01:24:58.160Z,10.52
2022-12-22T01:27:45.879Z,10.00
2022-12-22T01:30:32.708Z,10.02
2022-12-22T01:33:19.134Z,10.20
2022-12-22T01:36:06.164Z,10.20
2022-12-22T01:38:52.563Z,10.00
2022-12-22T01:41:40.255Z,11.15
2022-12-22T01:44:33.811Z,11.15
2022-12-22T01:47:58.731Z,11.05
2022-12-22T01:50:48.096Z,11.02
2022-12-22T01:53:38.829Z,11.15
2022-12-22T01:56:26.159Z,10.40
2022-12-22T01:59:16.026Z,12.55
2022-12-22T02:02:04.775Z,11.38
2022-12-22T02:04:54.416Z,11.80
2022-12-22T02:08:00.487Z,12.65
2022-12-22T02:11:07.715Z,10.63
2022-12-22T02:14:04.540Z,10.10
2022-12-22T02:16:57.199Z,10.20
2022-12-22T02:20:00.439Z,10.40
2022-12-22T02:22:55.688Z,10.20
2022-12-22T02:25:47.314Z,10.80
2022-12-22T02:28:35.529Z,10.52
2022-12-22T02:31:22.144Z,10.13
2022-12-22T02:34:08.776Z,11.25
2022-12-22T02:37:05.299Z,10.68
2022-12-22T02:40:04.531Z,9.68
2022-12-22T02:42:54.303Z,9.52
2022-12-22T02:45:49.484Z,10.20
2022-12-22T02:48:41.159Z,10.73
2022-12-22T02:51:31.642Z,10.35
2022-12-22T02:54:19.041Z,11.27
2022-12-22T02:57:07.041Z,10.88
2022-12-22T02:59:53.220Z,10.70
2022-12-22T03:02:41.663Z,11.27
2022-12-22T03:05:28.427Z,11.80
2022-12-22T03:08:15.458Z,11.25
2022-12-22T03:11:02.002Z,10.57
2022-12-22T03:13:48.933Z,12.40
2022-12-22T03:16:35.325Z,10.98
2022-12-22T03:19:24.053Z,11.77
2022-12-22T03:22:10.352Z,11.80
2022-12-22T03:24:57.447Z,11.27
2022-12-22T03:27:26.709Z,11.63
2022-12-22T03:29:56.470Z,12.10
2022-12-22T03:32:25.796Z,12.27
2022-12-22T03:34:57.137Z,11.95
2022-12-22T03:39:56.073Z,11.57
2022-12-22T03:42:42.544Z,11.70
2022-12-22T03:45:29.792Z,11.38
2022-12-22T03:47:59.045Z,12.60
2022-12-22T03:50:30.166Z,10.55
2022-12-22T03:52:59.597Z,11.82
2022-12-22T03:55:29.597Z,11.50
2022-12-22T03:57:59.357Z,11.80
2022-12-22T04:00:29.395Z,10.52
2022-12-22T04:03:00.350Z,11.85
2022-12-22T04:05:31.568Z,10.80
2022-12-22T04:08:01.055Z,10.23
2022-12-22T04:10:48.278Z,10.05
2022-12-22T04:13:17.600Z,12.18
2022-12-22T04:15:47.661Z,11.45
2022-12-22T04:18:17.108Z,11.25
2022-12-22T04:20:48.199Z,12.68
2022-12-22T04:23:17.526Z,11.30
2022-12-22T04:25:47.772Z,11.65
2022-12-22T04:28:17.086Z,10.88
2022-12-22T04:30:46.952Z,11.05
2022-12-22T04:33:16.481Z,11.75
2022-12-22T04:35:47.990Z,14.53
2022-12-22T04:38:17.311Z,12.48
2022-12-22T04:40:47.123Z,11.43
2022-12-22T04:43:16.679Z,12.00
2022-12-22T04:45:46.726Z,10.20
2022-12-22T04:48:16.031Z,11.30
2022-12-22T04:50:45.788Z,11.60
2022-12-22T04:53:16.533Z,11.20
2022-12-22T04:55:47.985Z,10.70
2022-12-22T04:58:17.708Z,11.43
2022-12-22T05:00:47.863Z,10.90
2022-12-22T05:03:17.362Z,10.05
2022-12-22T05:05:47.086Z,10.85
2022-12-22T05:08:18.078Z,11.35
2022-12-22T05:10:47.897Z,9.43
2022-12-22T05:13:17.180Z,9.90
2022-12-22T05:15:46.835Z,8.95
2022-12-22T05:18:16.147Z,9.73
2022-12-22T05:20:46.408Z,9.60
2022-12-22T05:23:17.190Z,9.73
2022-12-22T05:25:46.861Z,9.15
2022-12-22T05:28:16.137Z,10.73
2022-12-22T05:30:45.906Z,9.30
2022-12-22T05:33:15.195Z,8.98
2022-12-22T05:35:44.829Z,9.57
2022-12-22T05:38:14.109Z,9.57
2022-12-22T05:40:45.213Z,9.65
2022-12-22T05:43:14.648Z,9.05
2022-12-22T05:45:46.518Z,8.47
2022-12-22T05:48:18.901Z,8.48
2022-12-22T05:50:52.590Z,9.13
2022-12-22T05:53:21.958Z,11.02
2022-12-22T05:55:53.968Z,10.90
2022-12-22T05:58:23.377Z,11.43
2022-12-22T06:00:53.160Z,11.20
2022-12-22T06:03:22.535Z,12.15
2022-12-22T06:05:52.518Z,12.38
2022-12-22T06:08:22.481Z,12.32
2022-12-22T06:10:55.536Z,12.10
2022-12-22T06:13:25.214Z,11.10
2022-12-22T06:15:55.351Z,12.63
2022-12-22T06:18:24.935Z,12.00
2022-12-22T06:20:54.885Z,12.43
2022-12-22T06:23:24.771Z,11.68
2022-12-22T06:26:00.779Z,12.43
2022-12-22T06:28:30.571Z,11.85
2022-12-22T06:31:00.321Z,13.38
2022-12-22T06:33:29.615Z,11.13
2022-12-22T06:35:59.857Z,11.27
2022-12-22T06:38:29.836Z,11.50
2022-12-22T06:41:01.331Z,11.43
2022-12-22T06:45:59.034Z,11.68
2022-12-22T06:48:28.552Z,11.77
2022-12-22T06:51:00.552Z,10.88
2022-12-22T06:53:30.025Z,12.20
2022-12-22T06:56:01.511Z,12.43
2022-12-22T06:58:30.897Z,12.32
2022-12-22T07:01:00.680Z,13.73
2022-12-22T07:03:30.155Z,13.32
2022-12-22T07:05:59.891Z,13.60
2022-12-22T07:08:29.179Z,12.38
2022-12-22T07:11:00.611Z,13.65
2022-12-22T07:13:32.918Z,11.60
2022-12-22T07:16:03.745Z,11.38
2022-12-22T07:18:38.212Z,11.47
2022-12-22T07:21:10.782Z,11.32
2022-12-22T07:23:40.574Z,14.27
2022-12-22T07:26:12.746Z,12.75
2022-12-22T07:28:43.471Z,13.00
2022-12-22T07:31:14.920Z,14.00
2022-12-22T07:33:44.381Z,12.38
2022-12-22T07:36:15.767Z,11.15
2022-12-22T07:41:36.676Z,14.35
2022-12-22T07:44:06.751Z,13.40
2022-12-22T07:46:38.622Z,14.48
2022-12-22T07:49:26.241Z,13.02
2022-12-22T07:51:58.754Z,12.50
2022-12-22T07:54:29.011Z,14.75
2022-12-22T07:57:00.515Z,14.15
2022-12-22T07:59:29.870Z,13.77
2022-12-22T08:01:59.659Z,13.43
2022-12-22T08:04:29.230Z,13.05
2022-12-22T08:06:59.125Z,13.73
2022-12-22T08:09:28.642Z,14.80
2022-12-22T08:12:00.059Z,15.23
2022-12-22T08:14:29.499Z,13.70
2022-12-22T08:16:59.160Z,13.15
2022-12-22T08:19:28.991Z,15.20
2022-12-22T08:21:59.583Z,13.73
2022-12-22T08:24:28.982Z,14.25
2022-12-22T08:27:03.866Z,14.55
2022-12-22T08:29:37.953Z,13.82
2022-12-22T08:32:08.072Z,13.63
2022-12-22T08:34:37.382Z,14.02
2022-12-22T08:37:09.831Z,14.55
2022-12-22T08:39:41.258Z,13.55
2022-12-22T08:42:15.226Z,13.85
2022-12-22T08:44:46.204Z,13.25
2022-12-22T08:47:17.379Z,14.20
2022-12-22T08:49:46.921Z,14.98
2022-12-22T08:52:18.825Z,15.05
2022-12-22T08:54:48.870Z,13.85
2022-12-22T08:57:20.065Z,14.18
2022-12-22T09:02:18.915Z,12.30
2022-12-22T09:04:48.330Z,13.88
2022-12-22T09:07:18.683Z,13.75
2022-12-22T09:09:48.186Z,15.27
2022-12-22T09:12:19.588Z,15.98
2022-12-22T09:14:49.022Z,14.85
2022-12-22T09:17:18.671Z,14.70
2022-12-22T09:19:48.125Z,15.20
2022-12-22T09:22:23.348Z,13.05
2022-12-22T09:24:56.322Z,13.52
2022-12-22T09:27:27.632Z,14.45
2022-12-22T09:29:57.355Z,15.50
2022-12-22T09:32:27.480Z,13.20
2022-12-22T09:34:56.863Z,13.52
2022-12-22T09:37:26.533Z,13.02
2022-12-22T09:39:55.781Z,13.68
2022-12-22T09:42:26.880Z,13.40
2022-12-22T09:44:56.253Z,15.10
2022-12-22T09:47:31.117Z,15.37
2022-12-22T09:50:00.936Z,13.68
2022-12-22T09:52:45.935Z,13.63
2022-12-22T09:55:21.466Z,15.15
2022-12-22T09:57:52.916Z,13.73
2022-12-22T10:00:25.219Z,15.65
2022-12-22T10:03:02.088Z,15.00
2022-12-22T10:05:39.909Z,13.20
2022-12-22T10:08:14.054Z,12.60
2022-12-22T10:10:43.530Z,12.98
2022-12-22T10:13:20.004Z,13.45
2022-12-22T10:15:50.102Z,13.48
2022-12-22T10:18:24.671Z,12.43
2022-12-22T10:21:10.582Z,13.13
2022-12-22T10:23:43.075Z,10.90
2022-12-22T10:26:27.960Z,13.27
2022-12-22T10:29:05.355Z,11.38
2022-12-22T10:31:35.730Z,12.95
2022-12-22T10:34:16.889Z,12.35
2022-12-22T10:36:49.755Z,12.23
2022-12-22T10:39:24.350Z,11.68
2022-12-22T10:41:56.746Z,13.05
2022-12-22T10:44:30.471Z,11.50
2022-12-22T10:47:01.817Z,12.65
2022-12-22T10:52:14.938Z,13.00
2022-12-22T10:54:46.125Z,13.02
2022-12-22T10:57:39.333Z,14.45
2022-12-22T11:00:25.661Z,13.90
2022-12-22T11:02:56.341Z,14.18
2022-12-22T11:05:26.434Z,15.10
2022-12-22T11:07:56.841Z,16.10
2022-12-22T11:10:35.244Z,16.17
2022-12-22T11:13:25.910Z,18.73
2022-12-22T11:18:51.754Z,17.63
2022-12-22T11:21:27.747Z,19.38
2022-12-22T11:24:07.916Z,19.33
2022-12-22T11:26:45.534Z,19.70
2022-12-22T11:29:27.688Z,18.70
2022-12-22T11:32:21.785Z,19.17
2022-12-22T11:34:59.546Z,20.90
2022-12-22T11:37:38.196Z,21.80
2022-12-22T11:40:17.734Z,20.27
2022-12-22T11:43:00.906Z,20.77
2022-12-22T11:45:43.546Z,19.88
2022-12-22T11:48:39.608Z,18.40
2022-12-22T11:51:15.120Z,20.08
2022-12-22T11:54:29.187Z,20.08
2022-12-22T11:57:04.015Z,20.23
2022-12-22T11:59:43.843Z,20.00
2022-12-22T12:02:47.112Z,21.55
2022-12-22T12:05:40.190Z,21.15
2022-12-22T12:08:17.895Z,21.45
2022-12-22T12:10:50.920Z,21.70
2022-12-22T12:13:36.764Z,21.15
2022-12-22T12:16:20.475Z,22.05
2022-12-22T12:19:06.285Z,23.80
2022-12-22T12:21:48.890Z,21.85
2022-12-22T12:24:38.555Z,22.80
2022-12-22T12:27:14.864Z,21.37
2022-12-22T12:30:13.345Z,21.67
2022-12-22T12:32:48.167Z,23.67
2022-12-22T12:35:41.672Z,22.45
2022-12-22T12:38:47.895Z,23.95
2022-12-22T12:41:16.180Z,22.65
2022-12-22T12:43:47.744Z,23.70
2022-12-22T12:46:56.189Z,25.02
2022-12-22T12:49:59.708Z,25.02
2022-12-22T12:53:06.692Z,22.30
2022-12-22T12:55:57.917Z,23.48
2022-12-22T12:58:55.813Z,22.65
2022-12-22T13:01:57.757Z,22.58
2022-12-22T13:05:16.376Z,23.85
2022-12-22T13:08:12.483Z,23.55
2022-12-22T13:10:46.948Z,22.90
2022-12-22T13:13:48.742Z,25.48
2022-12-22T13:16:39.973Z,23.38
2022-12-22T13:19:28.419Z,26.52
2022-12-22T13:21:58.279Z,26.10
2022-12-22T13:24:35.424Z,28.58
2022-12-22T13:27:09.282Z,28.60
2022-12-22T13:29:48.075Z,25.80
2022-12-22T13:32:23.678Z,29.23
2022-12-22T13:37:54.240Z,29.98
2022-12-22T13:40:26.066Z,31.45
2022-12-22T13:42:59.324Z,30.48
2022-12-22T13:45:34.810Z,32.60
2022-12-22T13:48:10.081Z,35.05
2022-12-22T13:50:43.393Z,32.92
2022-12-22T13:53:42.097Z,33.92
2022-12-22T13:56:15.042Z,32.75
2022-12-22T13:58:46.904Z,32.42
2022-12-22T14:01:19.303Z,31.42
2022-12-22T14:04:01.332Z,33.83
2022-12-22T14:06:33.853Z,30.33
2022-12-22T14:09:18.703Z,31.40
2022-12-22T14:11:52.477Z,32.03
2022-12-22T14:14:27.223Z,33.55
2022-12-22T14:16:59.711Z,34.15
2022-12-22T14:19:33.488Z,34.65
2022-12-22T14:22:08.605Z,34.03
2022-12-22T14:24:44.473Z,29.38
2022-12-22T14:27:21.625Z,30.67
2022-12-22T14:29:52.788Z,33.42
2022-12-22T14:32:40.537Z,31.05
2022-12-22T14:35:31.429Z,30.98
2022-12-22T14:40:52.622Z,28.48
2022-12-22T14:43:30.431Z,28.98
2022-12-22T14:46:10.259Z,27.20
2022-12-22T14:48:47.161Z,27.57
2022-12-22T14:51:19.186Z,25.98
2022-12-22T14:53:51.474Z,28.05
2022-12-22T14:56:21.441Z,24.35
2022-12-22T14:58:52.000Z,29.80
2022-12-22T15:01:28.616Z,25.80
2022-12-22T15:04:07.232Z,25.95
2022-12-22T15:06:39.851Z,25.08
2022-12-22T15:10:12.685Z,25.50
2022-12-22T15:12:19.575Z,25.95
2022-12-22T15:14:50.321Z,25.85
2022-12-22T15:17:27.060Z,24.95
2022-12-22T15:19:59.597Z,26.35
2022-12-22T15:22:29.128Z,25.80
2022-12-22T15:24:58.776Z,25.65
2022-12-22T15:27:28.221Z,26.85
2022-12-22T15:29:57.996Z,25.48
2022-12-22T15:32:34.470Z,24.10
2022-12-22T15:35:17.528Z,25.20
2022-12-22T15:37:46.966Z,23.85
2022-12-22T15:40:22.155Z,25.73
2022-12-22T15:42:52.072Z,23.55
2022-12-22T15:45:23.517Z,23.55
2022-12-22T15:47:56.218Z,24.08
2022-12-22T15:50:33.530Z,24.60
2022-12-22T15:53:10.223Z,22.95
2022-12-22T15:55:44.749Z,25.02
2022-12-22T15:58:17.171Z,23.67
2022-12-22T16:00:47.157Z,23.55
2022-12-22T16:03:18.464Z,24.05
2022-12-22T16:05:48.493Z,23.23
2022-12-22T16:08:21.371Z,22.63
2022-12-22T16:10:52.068Z,21.70
2022-12-22T16:13:25.756Z,21.15
2022-12-22T16:15:56.187Z,21.73
2022-12-22T16:18:27.431Z,20.57
2022-12-22T16:21:01.039Z,19.75
2022-12-22T16:23:31.039Z,19.98
2022-12-22T16:26:02.621Z,19.83
2022-12-22T16:28:33.495Z,16.73
2022-12-22T16:31:03.448Z,18.65
2022-12-22T16:33:34.276Z,18.10
2022-12-22T16:36:04.888Z,15.23
2022-12-22T16:38:36.124Z,14.57
2022-12-22T16:41:07.774Z,16.75
2022-12-22T16:43:49.085Z,14.38
2022-12-22T16:46:20.969Z,15.15
2022-12-22T16:48:54.223Z,15.32
2022-12-22T16:51:27.035Z,13.68
2022-12-22T16:53:56.721Z,11.20
2022-12-22T16:56:28.766Z,13.03
2022-12-22T16:59:01.110Z,11.48
2022-12-22T17:01:37.243Z,11.50
2022-12-22T17:04:10.113Z,10.88
2022-12-22T17:06:41.141Z,11.02
2022-12-22T17:09:17.328Z,10.10
2022-12-22T17:11:48.026Z,10.45
2022-12-22T17:14:23.578Z,11.13
2022-12-22T17:16:53.729Z,11.27
2022-12-22T17:19:24.489Z,10.20
2022-12-22T17:21:54.895Z,10.40
2022-12-22T17:24:28.120Z,11.75
2022-12-22T17:27:02.642Z,13.55
2022-12-22T17:29:32.352Z,10.48
2022-12-22T17:32:02.746Z,10.55
2022-12-22T17:34:33.775Z,10.65
2022-12-22T17:37:03.583Z,11.27
2022-12-22T17:39:34.222Z,11.15
2022-12-22T17:44:32.864Z,10.25
2022-12-22T17:47:02.675Z,10.57
2022-12-22T17:49:33.642Z,12.35
2022-12-22T17:52:03.692Z,11.50
2022-12-22T17:54:33.107Z,13.27
2022-12-22T17:57:05.326Z,13.00
2022-12-22T17:59:34.813Z,11.60
2022-12-22T18:02:04.675Z,12.07
2022-12-22T18:04:35.949Z,13.18
2022-12-22T18:07:05.707Z,11.57
2022-12-22T18:09:35.467Z,12.10
2022-12-22T18:12:05.743Z,13.50
2022-12-22T18:14:34.995Z,15.27
2022-12-22T18:17:05.465Z,13.73
2022-12-22T18:19:36.203Z,13.82
2022-12-22T18:22:06.140Z,13.00
2022-12-22T18:24:35.646Z,13.77
2022-12-22T18:27:05.396Z,12.93
2022-12-22T18:29:34.853Z,13.20
2022-12-22T18:32:04.526Z,11.80
2022-12-22T18:34:33.999Z,13.68
2022-12-22T18:37:06.957Z,12.90
2022-12-22T18:39:38.001Z,13.30
2022-12-22T18:42:18.560Z,13.18
2022-12-22T18:44:47.869Z,13.75
2022-12-22T18:47:17.792Z,13.75
2022-12-22T18:49:47.885Z,14.43
2022-12-22T18:52:22.936Z,15.07
2022-12-22T18:54:52.407Z,13.57
2022-12-22T18:57:22.204Z,14.88
2022-12-22T18:59:51.781Z,15.13
2022-12-22T19:02:24.930Z,15.30
2022-12-22T19:04:55.628Z,16.35
2022-12-22T19:07:27.604Z,17.17
2022-12-22T19:09:57.120Z,15.32
2022-12-22T19:12:29.450Z,15.75
2022-12-22T19:15:04.898Z,15.27
2022-12-22T19:17:34.696Z,16.02
2022-12-22T19:20:04.127Z,16.00
2022-12-22T19:22:35.667Z,17.13
2022-12-22T19:27:34.642Z,14.40
2022-12-22T19:30:05.128Z,16.20
2022-12-22T19:32:41.761Z,15.98
2022-12-22T19:35:16.285Z,16.90
2022-12-22T19:37:47.909Z,14.95
2022-12-22T19:40:18.992Z,15.50
2022-12-22T19:42:50.770Z,15.80
2022-12-22T19:45:22.327Z,15.30
2022-12-22T19:47:53.547Z,14.68
2022-12-22T19:50:25.917Z,14.18
2022-12-22T19:52:59.059Z,15.88
2022-12-22T19:55:31.900Z,14.93
2022-12-22T19:58:02.530Z,16.65
2022-12-22T20:00:32.195Z,15.32
2022-12-22T20:03:01.999Z,15.95
2022-12-22T20:05:33.577Z,15.25
2022-12-22T20:08:04.856Z,16.08
2022-12-22T20:10:37.080Z,16.00
2022-12-22T20:13:09.096Z,15.15
2022-12-22T20:15:40.227Z,15.27
2022-12-22T20:18:21.660Z,13.93
2022-12-22T20:20:58.809Z,14.77
2022-12-22T20:23:33.272Z,14.35
2022-12-22T20:26:04.403Z,13.43
2022-12-22T20:28:35.934Z,13.05
2022-12-22T20:31:06.394Z,13.40
2022-12-22T20:36:12.251Z,13.43
2022-12-22T20:38:45.237Z,15.15
2022-12-22T20:41:14.757Z,12.15
2022-12-22T20:43:45.876Z,13.30
2022-12-22T20:46:18.017Z,14.57
2022-12-22T20:48:50.755Z,12.35
2022-12-22T20:51:22.370Z,12.27
2022-12-22T20:53:54.909Z,13.48
2022-12-22T20:56:28.717Z,12.95
2022-12-22T20:58:59.680Z,12.68
2022-12-22T21:01:29.880Z,12.38
2022-12-22T21:03:59.995Z,12.52
2022-12-22T21:06:31.145Z,13.18
2022-12-22T21:09:05.567Z,13.05
2022-12-22T21:11:36.324Z,12.60
2022-12-22T21:14:06.247Z,12.25
2022-12-22T21:16:36.419Z,11.27
2022-12-22T21:19:06.871Z,14.43
2022-12-22T21:21:36.997Z,13.70
2022-12-22T21:24:09.584Z,13.02
2022-12-22T21:26:43.313Z,12.95
2022-12-22T21:29:19.441Z,15.48
2022-12-22T21:31:48.758Z,14.00
2022-12-22T21:34:18.804Z,14.05
2022-12-22T21:36:50.431Z,13.82
2022-12-22T21:39:31.528Z,13.32
2022-12-22T21:42:05.168Z,14.15
2022-12-22T21:44:36.577Z,13.98
2022-12-22T21:47:06.347Z,14.52
2022-12-22T21:49:36.313Z,14.15
2022-12-22T21:52:05.963Z,14.07
2022-12-22T21:54:37.414Z,13.30
2022-12-22T21:57:07.135Z,13.35
2022-12-22T21:59:36.782Z,12.80
2022-12-22T22:02:08.136Z,12.98
2022-12-22T22:04:39.257Z,13.15
2022-12-22T22:07:08.555Z,13.55
2022-12-22T22:09:40.031Z,12.40
2022-12-22T22:12:28.615Z,12.40
2022-12-22T22:15:01.088Z,11.63
2022-12-22T22:17:30.407Z,11.63
2022-12-22T22:20:00.174Z,10.43
2022-12-22T22:22:29.447Z,10.68
2022-12-22T22:25:01.216Z,11.90
2022-12-22T22:27:30.531Z,9.98
2022-12-22T22:30:00.366Z,9.52
2022-12-22T22:32:29.811Z,9.32
2022-12-22T22:35:00.866Z,9.13
2022-12-22T22:37:30.382Z,9.65
2022-12-22T22:40:01.511Z,8.35
2022-12-22T22:42:30.829Z,9.88
2022-12-22T22:45:00.538Z,9.80
2022-12-22T22:47:29.943Z,8.52
2022-12-22T22:49:59.654Z,8.50
2022-12-22T22:52:29.140Z,7.75
2022-12-22T22:54:58.821Z,7.70
2022-12-22T22:57:29.615Z,7.03
2022-12-22T22:59:59.364Z,8.27
2022-12-22T23:02:29.071Z,7.63
2022-12-22T23:04:58.916Z,6.75
2022-12-22T23:07:28.272Z,7.57
2022-12-22T23:09:57.955Z,7.57
2022-12-22T23:12:28.873Z,6.95
2022-12-22T23:14:58.880Z,6.85
2022-12-22T23:17:28.156Z,6.72
2022-12-22T23:19:57.814Z,7.60
2022-12-22T23:22:27.256Z,6.60
2022-12-22T23:24:56.922Z,6.10
2022-12-22T23:27:26.252Z,6.03
2022-12-22T23:29:57.963Z,5.27
2022-12-22T23:34:57.131Z,5.20
2022-12-22T23:37:26.679Z,5.28
2022-12-22T23:40:10.771Z,5.22
2022-12-22T23:42:45.938Z,5.65
2022-12-22T23:45:17.227Z,4.70
2022-12-22T23:47:47.965Z,5.38
2022-12-22T23:50:18.142Z,5.40
2022-12-22T23:52:49.428Z,5.75
2022-12-22T23:55:19.664Z,5.53
2022-12-22T23:57:50.658Z,6.70
